Time,TemperatureF,DewpointF,PressureIn,WindDirection,WindDirectionDegrees,WindSpeedMPH,WindSpeedGustMPH,Humidity,HourlyPrecipIn,Conditions,Clouds,dailyrainin,SoftwareType,DateUTC
2013-07-31 00:00:00,58.0,55.0,30.10,SSW,212,0.0,1.0,89,0.00,,,-99.99,,2013-07-31 04:00:00,
2013-07-31 00:32:00,58.0,55.0,30.10,SSW,212,0.0,1.0,89,0.00,,,-99.99,,2013-07-31 04:32:00,
2013-07-31 00:42:00,58.0,55.0,30.10,SSW,212,0.0,1.0,89,0.00,,,-99.99,,2013-07-31 04:42:00,
2013-07-31 00:52:00,58.0,55.0,30.10,SSW,212,0.0,1.0,89,0.00,,,-99.99,,2013-07-31 04:52:00,
2013-07-31 01:00:00,57.0,54.0,30.09,SSW,213,0.0,0.0,89,0.00,,,-99.99,,2013-07-31 05:00:00,
2013-07-31 01:32:00,57.0,54.0,30.09,SSW,213,0.0,0.0,89,0.00,,,-99.99,,2013-07-31 05:32:00,
2013-07-31 01:43:00,57.0,54.0,30.09,SSW,213,0.0,0.0,89,0.00,,,-99.99,,2013-07-31 05:43:00,
2013-07-31 01:52:00,57.0,54.0,30.09,SSW,213,0.0,0.0,89,0.00,,,-99.99,,2013-07-31 05:52:00,
2013-07-31 02:00:00,56.0,53.0,30.09,SSW,213,0.0,0.0,90,0.00,,,-99.99,,2013-07-31 06:00:00,
2013-07-31 02:32:00,56.0,53.0,30.09,SSW,213,0.0,0.0,90,0.00,,,-99.99,,2013-07-31 06:32:00,
2013-07-31 02:43:00,56.0,53.0,30.09,SSW,213,0.0,0.0,90,0.00,,,-99.99,,2013-07-31 06:43:00,
2013-07-31 02:53:00,56.0,53.0,30.09,SSW,213,0.0,0.0,90,0.00,,,-99.99,,2013-07-31 06:53:00,
2013-07-31 03:00:00,57.0,54.0,30.09,SSW,213,0.0,1.0,90,0.00,,,-99.99,,2013-07-31 07:00:00,
2013-07-31 03:32:00,57.0,54.0,30.09,SSW,213,0.0,1.0,90,0.00,,,-99.99,,2013-07-31 07:32:00,
2013-07-31 03:43:00,57.0,54.0,30.09,SSW,213,0.0,1.0,90,0.00,,,-99.99,,2013-07-31 07:43:00,
2013-07-31 03:52:00,57.0,54.0,30.09,SSW,213,0.0,1.0,90,0.00,,,-99.99,,2013-07-31 07:52:00,
2013-07-31 04:00:00,56.0,53.0,30.09,SSW,213,0.0,0.0,92,0.00,,,-99.99,,2013-07-31 08:00:00,
2013-07-31 04:33:00,56.0,53.0,30.09,SSW,213,0.0,0.0,92,0.00,,,-99.99,,2013-07-31 08:33:00,
2013-07-31 04:42:00,56.0,53.0,30.09,SSW,213,0.0,0.0,92,0.00,,,-99.99,,2013-07-31 08:42:00,
2013-07-31 04:53:00,56.0,53.0,30.09,SSW,213,0.0,0.0,92,0.00,,,-99.99,,2013-07-31 08:53:00,
2013-07-31 05:00:00,57.0,55.0,30.10,SSW,213,0.0,1.0,94,0.00,,,-99.99,,2013-07-31 09:00:00,
2013-07-31 05:33:00,57.0,55.0,30.10,SSW,213,0.0,1.0,94,0.00,,,-99.99,,2013-07-31 09:33:00,
2013-07-31 05:44:00,57.0,55.0,30.10,SSW,213,0.0,1.0,94,0.00,,,-99.99,,2013-07-31 09:44:00,
2013-07-31 05:52:00,57.0,55.0,30.10,SSW,213,0.0,1.0,94,0.00,,,-99.99,,2013-07-31 09:52:00,
2013-07-31 06:00:00,56.0,54.0,30.11,SSW,213,0.0,1.0,93,0.00,,,-99.99,,2013-07-31 10:00:00,
2013-07-31 06:32:00,56.0,54.0,30.11,SSW,213,0.0,1.0,93,0.00,,,-99.99,,2013-07-31 10:32:00,
2013-07-31 06:44:00,56.0,54.0,30.11,SSW,213,0.0,1.0,93,0.00,,,-99.99,,2013-07-31 10:44:00,
2013-07-31 06:52:00,56.0,54.0,30.11,SSW,213,0.0,1.0,93,0.00,,,-99.99,,2013-07-31 10:52:00,
2013-07-31 07:00:00,62.0,57.0,30.12,SSW,212,1.0,1.0,85,0.00,,,-99.99,,2013-07-31 11:00:00,
2013-07-31 07:43:00,62.0,57.0,30.12,SSW,212,1.0,1.0,85,0.00,,,-99.99,,2013-07-31 11:43:00,
2013-07-31 07:53:00,62.0,57.0,30.12,SSW,212,1.0,1.0,85,0.00,,,-99.99,,2013-07-31 11:53:00,
2013-07-31 08:00:00,67.0,60.0,30.11,NE,53,1.0,2.0,79,0.00,,,-99.99,,2013-07-31 12:00:00,
2013-07-31 08:43:00,67.0,60.0,30.11,NE,53,1.0,2.0,79,0.00,,,-99.99,,2013-07-31 12:43:00,
2013-07-31 08:53:00,67.0,60.0,30.11,NE,53,1.0,2.0,79,0.00,,,-99.99,,2013-07-31 12:53:00,
2013-07-31 09:00:00,72.0,61.0,30.11,North,6,4.0,5.0,67,0.00,,,-99.99,,2013-07-31 13:00:00,
2013-07-31 09:33:00,72.0,61.0,30.11,North,6,4.0,5.0,67,0.00,,,-99.99,,2013-07-31 13:33:00,
2013-07-31 09:43:00,72.0,61.0,30.11,North,6,4.0,5.0,67,0.00,,,-99.99,,2013-07-31 13:43:00,
2013-07-31 09:53:00,72.0,61.0,30.11,North,6,4.0,5.0,67,0.00,,,-99.99,,2013-07-31 13:53:00,
2013-07-31 10:00:00,75.0,60.0,30.10,SSW,192,1.0,4.0,60,0.00,,,-99.99,,2013-07-31 14:00:00,
2013-07-31 10:34:00,75.0,60.0,30.10,SSW,192,1.0,4.0,60,0.00,,,-99.99,,2013-07-31 14:34:00,
2013-07-31 10:43:00,75.0,60.0,30.10,SSW,192,1.0,4.0,60,0.00,,,-99.99,,2013-07-31 14:43:00,
2013-07-31 10:53:00,75.0,60.0,30.10,SSW,192,1.0,4.0,60,0.00,,,-99.99,,2013-07-31 14:53:00,
2013-07-31 11:00:00,77.0,58.0,30.09,South,181,3.0,6.0,53,0.00,,,-99.99,,2013-07-31 15:00:00,
2013-07-31 11:53:00,77.0,58.0,30.09,South,181,3.0,6.0,53,0.00,,,-99.99,,2013-07-31 15:53:00,
2013-07-31 12:00:00,78.0,61.0,30.08,SE,136,8.0,11.0,56,0.00,,,-99.99,,2013-07-31 16:00:00,
2013-07-31 12:33:00,78.0,61.0,30.08,SE,136,8.0,11.0,56,0.00,,,-99.99,,2013-07-31 16:33:00,
2013-07-31 12:44:00,78.0,61.0,30.08,SE,136,8.0,11.0,56,0.00,,,-99.99,,2013-07-31 16:44:00,
2013-07-31 12:53:00,78.0,61.0,30.08,SE,136,8.0,11.0,56,0.00,,,-99.99,,2013-07-31 16:53:00,
2013-07-31 13:00:00,77.0,60.0,30.07,SSE,157,9.0,16.0,55,0.00,,,-99.99,,2013-07-31 17:00:00,
2013-07-31 13:33:00,77.0,60.0,30.07,SSE,157,9.0,16.0,55,0.00,,,-99.99,,2013-07-31 17:33:00,
2013-07-31 13:43:00,77.0,60.0,30.07,SSE,157,9.0,16.0,55,0.00,,,-99.99,,2013-07-31 17:43:00,
2013-07-31 13:53:00,77.0,60.0,30.07,SSE,157,9.0,16.0,55,0.00,,,-99.99,,2013-07-31 17:53:00,
2013-07-31 14:00:00,77.0,63.0,30.06,South,187,4.0,13.0,61,0.00,,,-99.99,,2013-07-31 18:00:00,
2013-07-31 14:33:00,77.0,63.0,30.06,South,187,4.0,13.0,61,0.00,,,-99.99,,2013-07-31 18:33:00,
2013-07-31 14:43:00,77.0,63.0,30.06,South,187,4.0,13.0,61,0.00,,,-99.99,,2013-07-31 18:43:00,
2013-07-31 14:52:00,77.0,63.0,30.06,South,187,4.0,13.0,61,0.00,,,-99.99,,2013-07-31 18:52:00,
2013-07-31 15:00:00,78.0,62.0,30.03,South,174,9.0,15.0,58,0.00,,,-99.99,,2013-07-31 19:00:00,
2013-07-31 15:43:00,78.0,62.0,30.03,South,174,9.0,15.0,58,0.00,,,-99.99,,2013-07-31 19:43:00,
2013-07-31 15:53:00,78.0,62.0,30.03,South,174,9.0,15.0,58,0.00,,,-99.99,,2013-07-31 19:53:00,
2013-07-31 16:00:00,75.0,63.0,30.03,SSE,162,12.0,14.0,66,0.00,,,-99.99,,2013-07-31 20:00:00,
2013-07-31 16:32:00,75.0,63.0,30.03,SSE,162,12.0,14.0,66,0.00,,,-99.99,,2013-07-31 20:32:00,
2013-07-31 16:43:00,75.0,63.0,30.03,SSE,162,12.0,14.0,66,0.00,,,-99.99,,2013-07-31 20:43:00,
2013-07-31 16:53:00,75.0,63.0,30.03,SSE,162,12.0,14.0,66,0.00,,,-99.99,,2013-07-31 20:53:00,
2013-07-31 17:00:00,74.0,63.0,30.02,SSE,161,8.0,16.0,68,0.00,,,-99.99,,2013-07-31 21:00:00,
2013-07-31 17:32:00,74.0,63.0,30.02,SSE,161,8.0,16.0,68,0.00,,,-99.99,,2013-07-31 21:32:00,
2013-07-31 17:43:00,74.0,63.0,30.02,SSE,161,8.0,16.0,68,0.00,,,-99.99,,2013-07-31 21:43:00,
2013-07-31 17:53:00,74.0,63.0,30.02,SSE,161,8.0,16.0,68,0.00,,,-99.99,,2013-07-31 21:53:00,
2013-07-31 18:00:00,73.0,62.0,30.02,South,178,6.0,14.0,68,0.00,,,-99.99,,2013-07-31 22:00:00,
2013-07-31 18:33:00,73.0,62.0,30.02,South,178,6.0,14.0,68,0.00,,,-99.99,,2013-07-31 22:33:00,
2013-07-31 18:43:00,73.0,62.0,30.02,South,178,6.0,14.0,68,0.00,,,-99.99,,2013-07-31 22:43:00,
2013-07-31 18:53:00,73.0,62.0,30.02,South,178,6.0,14.0,68,0.00,,,-99.99,,2013-07-31 22:53:00,
2013-07-31 19:00:00,71.0,59.0,30.01,South,175,3.0,8.0,66,0.00,,,-99.99,,2013-07-31 23:00:00,
2013-07-31 19:32:00,71.0,59.0,30.01,South,175,3.0,8.0,66,0.00,,,-99.99,,2013-07-31 23:32:00,
2013-07-31 19:43:00,71.0,59.0,30.01,South,175,3.0,8.0,66,0.00,,,-99.99,,2013-07-31 23:43:00,
2013-07-31 19:53:00,71.0,59.0,30.01,South,175,3.0,8.0,66,0.00,,,-99.99,,2013-07-31 23:53:00,
2013-07-31 20:00:00,70.0,59.0,30.01,SSE,160,2.0,7.0,68,0.00,,,-99.99,,2013-08-01 00:00:00,
2013-07-31 20:32:00,70.0,59.0,30.01,SSE,160,2.0,7.0,68,0.00,,,-99.99,,2013-08-01 00:32:00,
2013-07-31 20:43:00,70.0,59.0,30.01,SSE,160,2.0,7.0,68,0.00,,,-99.99,,2013-08-01 00:43:00,
2013-07-31 20:52:00,70.0,59.0,30.01,SSE,160,2.0,7.0,68,0.00,,,-99.99,,2013-08-01 00:52:00,
2013-07-31 21:00:00,69.0,59.0,30.01,SSE,157,2.0,6.0,69,0.00,,,-99.99,,2013-08-01 01:00:00,
2013-07-31 21:33:00,69.0,59.0,30.01,SSE,157,2.0,6.0,69,0.00,,,-99.99,,2013-08-01 01:33:00,
2013-07-31 21:43:00,69.0,59.0,30.01,SSE,157,2.0,6.0,69,0.00,,,-99.99,,2013-08-01 01:43:00,
2013-07-31 21:53:00,69.0,59.0,30.01,SSE,157,2.0,6.0,69,0.00,,,-99.99,,2013-08-01 01:53:00,
2013-07-31 22:00:00,68.0,59.0,30.02,SSW,213,3.0,4.0,73,0.00,,,-99.99,,2013-08-01 02:00:00,
2013-07-31 22:43:00,68.0,59.0,30.02,SSW,213,3.0,4.0,73,0.00,,,-99.99,,2013-08-01 02:43:00,
2013-07-31 22:53:00,68.0,59.0,30.02,SSW,213,3.0,4.0,73,0.00,,,-99.99,,2013-08-01 02:53:00,
2013-07-31 23:00:00,69.0,60.0,30.01,South,190,4.0,6.0,74,0.00,,,-99.99,,2013-08-01 03:00:00,
2013-07-31 23:32:00,69.0,60.0,30.01,South,190,4.0,6.0,74,0.00,,,-99.99,,2013-08-01 03:32:00,
2013-07-31 23:43:00,69.0,60.0,30.01,South,190,4.0,6.0,74,0.00,,,-99.99,,2013-08-01 03:43:00,
2013-07-31 23:53:00,69.0,60.0,30.01,South,190,4.0,6.0,74,0.00,,,-99.99,,2013-08-01 03:53:00,